Country
Station

 

Weather  for  North Platte, North Platte Regional Airport  -  United States    United States

  
19 °C (66 °F)
    
 
 

Current METAR for North Platte, North Platte Regional Airport is :

KLBF 171053Z AUTO 14014G22KT 10SM FEW120 19/18 A3008 RMK AO2 PK WND 12031/1021 RAE26 SLP154 P0001 T01940183

 

This is a report for North Platte, North Platte Regional Airport - United States.
 
The report was made 28 minutes ago, at 10:53 UTC .
The wind was blowing at a speed of 7.2 meters per second (16.1 miles per hour) with gusts up to 11.3 meters per second (25.3 miles per hour) from southeast (140°).
 
The temperature was 19 °C (66 °F), with a dew-point at 18 °C (64 °F).
The atmospheric pressure was 1019 hPa (30.08 inHg).
The relative humidity was 93.9%.
 
There were a few clouds at a height of 3658 meters (12000 feet).
 
The overall visibility was 16.1 kilometers (10.0 miles).
 

 
 
 
 

Country :   A   B   C   D   E   F   G   H   I   J   K   L   M   N   O   P   Q   R   S   T   U   V   W   Y   Z

 

Site Info  |  Disclaimer  |  Credits  |  Privacy
Contact us  |  Add to favorites
© 2013-2018 METARs - All rights reserved